Magne Viking — OURK2 — position and weather

sailwx.info

Track history (hours):
 
Tides and Currents Weather Stations Pressure Air Temp Water Temp Dewpoint Dewpoint Depression Visibility Wind Speed Wind Dir Waves Ship Positions

Magne Viking

Last reported at 2015-Jul-03 10:21 UTC. Time now 2015-Jul-07 08:55 UTC.
Position N 57°08' W 001°60'.

Length 85 m; draft 6.4 m.

Type: Tug. MMSI: 219375000.

Date/timePositionNaut miles runAvg speedWind from/ knotsBaromVisibWave heightAir tempDewpointWater temp
2015-Jul-03 10:21N 57°08' W 001°60'2 0.1
2015-Jul-02 23:30N 57°09' W 002°03'2 1.6
2015-Jul-02 22:33N 57°08' W 002°05'0 0.0
2015-Jul-02 19:29N 57°08' W 002°05'0 0.0
2015-Jul-02 17:30N 57°08' W 002°05'0 0.0
2015-Jul-02 15:25N 57°08' W 002°05'2 2.6
2015-Jul-02 14:33N 57°09' W 002°01'2 1.6
2015-Jul-02 13:32N 57°10' W 001°59'0 0.2
2015-Jul-02 12:25N 57°11' W 001°59'0 0.0
2015-Jul-02 11:24N 57°11' W 001°59'0 0.0
2015-Jul-02 10:16N 57°11' W 001°59'113 7.1
2015-Jul-01 18:28N 58°02' E 001°09'1 1.3
2015-Jul-01 17:32N 58°02' E 001°11'1 1.2
2015-Jul-01 16:33N 58°01' E 001°12'1 1.0
2015-Jul-01 15:31N 58°02' E 001°11'1 1.1
2015-Jul-01 14:31N 58°03' E 001°11'1 0.1
2015-Jun-30 23:29N 58°03' E 001°09'0 0.0
2015-Jun-30 22:32N 58°03' E 001°09'0 0.0
2015-Jun-30 21:33N 58°03' E 001°09'114 2.3
2015-Jun-28 20:04N 57°10' W 001°59'3 6.7
2015-Jun-28 19:33N 57°08' W 002°05'0 0.0
2015-Jun-28 18:33N 57°08' W 002°05'0 0.0
2015-Jun-28 17:28N 57°08' W 002°05'0 0.0
2015-Jun-28 16:29N 57°08' W 002°05'0 0.0
2015-Jun-28 15:29N 57°08' W 002°05'0 0.0
2015-Jun-28 14:30N 57°08' W 002°05'0 0.0
2015-Jun-28 13:31N 57°08' W 002°05'0 0.0
2015-Jun-28 12:31N 57°08' W 002°05'0 0.0
2015-Jun-28 11:29N 57°08' W 002°05'0 0.0
2015-Jun-28 10:33N 57°08' W 002°05'0 0.3
2015-Jun-28 09:33N 57°09' W 002°05'0 0.0
2015-Jun-28 08:31N 57°09' W 002°05'0 0.0
2015-Jun-28 07:32N 57°09' W 002°05'0 0.0
2015-Jun-28 06:32N 57°09' W 002°05'0 0.0
2015-Jun-28 05:33N 57°09' W 002°05'0 0.0
2015-Jun-28 04:31N 57°09' W 002°05'0 0.0
2015-Jun-28 03:31N 57°09' W 002°05'0 0.0
2015-Jun-28 02:32N 57°09' W 002°05'0 0.0
2015-Jun-28 01:33N 57°09' W 002°05'0 0.0
2015-Jun-28 00:33N 57°09' W 002°05'0 0.0
2015-Jun-27 23:31N 57°09' W 002°05'0 0.0
2015-Jun-27 22:32N 57°09' W 002°05'0 0.0
2015-Jun-27 21:32N 57°09' W 002°05'0 0.0
2015-Jun-27 20:33N 57°09' W 002°05'0 0.0
2015-Jun-27 19:31N 57°09' W 002°05'0 0.0
2015-Jun-27 18:32N 57°09' W 002°05'0 0.0
2015-Jun-27 17:32N 57°09' W 002°05'0 0.0
2015-Jun-27 16:33N 57°09' W 002°05'0 0.0
2015-Jun-27 15:33N 57°09' W 002°05'0 0.0
2015-Jun-27 14:31N 57°09' W 002°05'0 0.0
2015-Jun-27 13:32N 57°09' W 002°05'0 0.0
2015-Jun-27 12:32N 57°09' W 002°05'0 0.0
2015-Jun-27 11:33N 57°09' W 002°05'0 0.0
2015-Jun-27 10:31N 57°09' W 002°05'0 0.0
2015-Jun-27 09:32N 57°09' W 002°05'0 0.0
2015-Jun-27 08:32N 57°09' W 002°05'0 0.2
2015-Jun-27 07:34N 57°08' W 002°04'2 2.4
2015-Jun-27 06:33N 57°10' W 002°01'  
2015-Jun-24 22:29N 57°10' W 002°01'3 2.7
2015-Jun-24 21:33N 57°09' W 002°05'0 0.0
2015-Jun-24 20:04N 57°09' W 002°05'0 0.0
2015-Jun-24 19:29N 57°09' W 002°05'0 0.0
2015-Jun-24 18:23N 57°09' W 002°05'0 0.0
2015-Jun-24 17:30N 57°09' W 002°05'0 0.0
2015-Jun-24 16:13N 57°09' W 002°05'0 0.0
2015-Jun-24 15:25N 57°09' W 002°05'0 0.0
2015-Jun-24 14:32N 57°09' W 002°05'0 0.0
2015-Jun-24 13:32N 57°09' W 002°05'0 0.0
2015-Jun-24 12:33N 57°09' W 002°05'0 0.0
2015-Jun-24 11:22N 57°09' W 002°05'0 0.0
2015-Jun-24 10:28N 57°09' W 002°05'0 0.0
2015-Jun-24 09:32N 57°09' W 002°05'0 0.0
2015-Jun-24 08:33N 57°09' W 002°05'0 0.0
2015-Jun-24 07:33N 57°09' W 002°05'0 0.3
2015-Jun-24 06:33N 57°08' W 002°04'3 2.5
2015-Jun-24 05:34N 57°10' W 002°00'  
Track history (hours):
 
Tides and Currents Weather Stations Pressure Air Temp Water Temp Dewpoint Dewpoint Depression Visibility Wind Speed Wind Dir Waves Ship Positions

Magne Viking

Last reported at 2015-Jul-03 10:21 UTC. Time now 2015-Jul-07 08:55 UTC.
Position N 57°08' W 001°60'.

Length 85 m; draft 6.4 m.

Type: Tug. MMSI: 219375000.

Date/timePositionNaut miles runAvg speedWind from/ knotsBaromVisibWave heightAir tempDewpointWater temp
2015-Jul-03 10:21N 57°08' W 001°60'2 0.1
2015-Jul-02 23:30N 57°09' W 002°03'2 1.6
2015-Jul-02 22:33N 57°08' W 002°05'0 0.0
2015-Jul-02 19:29N 57°08' W 002°05'0 0.0
2015-Jul-02 17:30N 57°08' W 002°05'0 0.0
2015-Jul-02 15:25N 57°08' W 002°05'2 2.6
2015-Jul-02 14:33N 57°09' W 002°01'2 1.6
2015-Jul-02 13:32N 57°10' W 001°59'0 0.2
2015-Jul-02 12:25N 57°11' W 001°59'0 0.0
2015-Jul-02 11:24N 57°11' W 001°59'0 0.0
2015-Jul-02 10:16N 57°11' W 001°59'113 7.1
2015-Jul-01 18:28N 58°02' E 001°09'1 1.3
2015-Jul-01 17:32N 58°02' E 001°11'1 1.2
2015-Jul-01 16:33N 58°01' E 001°12'1 1.0
2015-Jul-01 15:31N 58°02' E 001°11'1 1.1
2015-Jul-01 14:31N 58°03' E 001°11'1 0.1
2015-Jun-30 23:29N 58°03' E 001°09'0 0.0
2015-Jun-30 22:32N 58°03' E 001°09'0 0.0
2015-Jun-30 21:33N 58°03' E 001°09'114 2.3
2015-Jun-28 20:04N 57°10' W 001°59'3 6.7
2015-Jun-28 19:33N 57°08' W 002°05'0 0.0
2015-Jun-28 18:33N 57°08' W 002°05'0 0.0
2015-Jun-28 17:28N 57°08' W 002°05'0 0.0
2015-Jun-28 16:29N 57°08' W 002°05'0 0.0
2015-Jun-28 15:29N 57°08' W 002°05'0 0.0
2015-Jun-28 14:30N 57°08' W 002°05'0 0.0
2015-Jun-28 13:31N 57°08' W 002°05'0 0.0
2015-Jun-28 12:31N 57°08' W 002°05'0 0.0
2015-Jun-28 11:29N 57°08' W 002°05'0 0.0
2015-Jun-28 10:33N 57°08' W 002°05'0 0.3
2015-Jun-28 09:33N 57°09' W 002°05'0 0.0
2015-Jun-28 08:31N 57°09' W 002°05'0 0.0
2015-Jun-28 07:32N 57°09' W 002°05'0 0.0
2015-Jun-28 06:32N 57°09' W 002°05'0 0.0
2015-Jun-28 05:33N 57°09' W 002°05'0 0.0
2015-Jun-28 04:31N 57°09' W 002°05'0 0.0
2015-Jun-28 03:31N 57°09' W 002°05'0 0.0
2015-Jun-28 02:32N 57°09' W 002°05'0 0.0
2015-Jun-28 01:33N 57°09' W 002°05'0 0.0
2015-Jun-28 00:33N 57°09' W 002°05'0 0.0
2015-Jun-27 23:31N 57°09' W 002°05'0 0.0
2015-Jun-27 22:32N 57°09' W 002°05'0 0.0
2015-Jun-27 21:32N 57°09' W 002°05'0 0.0
2015-Jun-27 20:33N 57°09' W 002°05'0 0.0
2015-Jun-27 19:31N 57°09' W 002°05'0 0.0
2015-Jun-27 18:32N 57°09' W 002°05'0 0.0
2015-Jun-27 17:32N 57°09' W 002°05'0 0.0
2015-Jun-27 16:33N 57°09' W 002°05'0 0.0
2015-Jun-27 15:33N 57°09' W 002°05'0 0.0
2015-Jun-27 14:31N 57°09' W 002°05'0 0.0
2015-Jun-27 13:32N 57°09' W 002°05'0 0.0
2015-Jun-27 12:32N 57°09' W 002°05'0 0.0
2015-Jun-27 11:33N 57°09' W 002°05'0 0.0
2015-Jun-27 10:31N 57°09' W 002°05'0 0.0
2015-Jun-27 09:32N 57°09' W 002°05'0 0.0
2015-Jun-27 08:32N 57°09' W 002°05'0 0.2
2015-Jun-27 07:34N 57°08' W 002°04'2 2.4
2015-Jun-27 06:33N 57°10' W 002°01'  
2015-Jun-24 22:29N 57°10' W 002°01'3 2.7
2015-Jun-24 21:33N 57°09' W 002°05'0 0.0
2015-Jun-24 20:04N 57°09' W 002°05'0 0.0
2015-Jun-24 19:29N 57°09' W 002°05'0 0.0
2015-Jun-24 18:23N 57°09' W 002°05'0 0.0
2015-Jun-24 17:30N 57°09' W 002°05'0 0.0
2015-Jun-24 16:13N 57°09' W 002°05'0 0.0
2015-Jun-24 15:25N 57°09' W 002°05'0 0.0
2015-Jun-24 14:32N 57°09' W 002°05'0 0.0
2015-Jun-24 13:32N 57°09' W 002°05'0 0.0
2015-Jun-24 12:33N 57°09' W 002°05'0 0.0
2015-Jun-24 11:22N 57°09' W 002°05'0 0.0
2015-Jun-24 10:28N 57°09' W 002°05'0 0.0
2015-Jun-24 09:32N 57°09' W 002°05'0 0.0
2015-Jun-24 08:33N 57°09' W 002°05'0 0.0
2015-Jun-24 07:33N 57°09' W 002°05'0 0.3
2015-Jun-24 06:33N 57°08' W 002°04'3 2.5
2015-Jun-24 05:34N 57°10' W 002°00'  

Dump ship's entire track history